Overview Statistics Trail Chart Weather Telemetry Raw packets
 

This is the latest recevied weather packets stored in our database for station/object 9M2SPN-3. If no packets are shown the sender has not sent any weather packets the latest 10 day(s).

<< 11 12 13 14 15 16 17 >>
Time Temp. Humidity Pressure Rain* Wind** Luminosity Snow
1788031577 34.44° C 56% 1008.5 hPa - - - -
1788029776 35° C 55% 1008.6 hPa - - - -
1788027975 35° C 57% 1008.5 hPa - - - -
1788026174 36.11° C 57% 1008.4 hPa - - - -
1788024373 36.11° C 57% 1008.6 hPa - - - -
1788022572 36.67° C 56% 1008.6 hPa - - - -
1788020771 36.67° C 55% 1008.8 hPa - - - -
1788018971 36.67° C 56% 1008.6 hPa - - - -
1788017170 36.67° C 55% 1008.3 hPa - - - -
1788015369 37.22° C 55% 1008 hPa - - - -
1788013568 37.22° C 55% 1008 hPa - - - -
1788011767 37.22° C 55% 1007.7 hPa - - - -
1788009967 37.78° C 55% 1007.1 hPa - - - -
1788008166 37.78° C 55% 1007 hPa - - - -
1788006365 37.78° C 54% 1006.2 hPa - - - -
1788004564 38.33° C 53% 1005.8 hPa - - - -
1788002763 38.89° C 52% 1005.7 hPa - - - -
1788000962 38.89° C 51% 1005.5 hPa - - - -
1787999162 38.89° C 50% 1005 hPa - - - -
1787997361 39.44° C 48% 1004.4 hPa - - - -
1787995560 40° C 45% 1004.3 hPa - - - -
1787993759 41.11° C 44% 1004.3 hPa - - - -
1787991958 41.11° C 43% 1004.6 hPa - - - -
1787990157 40.56° C 45% 1005.1 hPa - - - -
1787988357 40° C 47% 1005.4 hPa - - - -

* Rain since midnight (hover to see other rain measurements)
** Current wind speed in m/s (hover to see current wind gust speed)